Time;durP1;ratioP1;P1;durP2;ratioP2;P2;SDS_P1;SDS_P2;PMS_P1;PMS_P2;Temp;Humidity;BMP_temperature;BMP_pressure;BME280_temperature;BME280_humidity;BME280_pressure;Samples;Min_cycle;Max_cycle;Signal;HPM_P1;HPM_P2
2021/10/28 00:14:20;;;;;;;20.73;12.75;;;10.60;94.90;;;;;;5032301;28;20036;-72
2021/10/28 00:16:48;;;;;;;17.52;11.80;;;10.60;94.90;;;;;;5032725;28;20017;-72
2021/10/28 00:19:15;;;;;;;20.95;13.60;;;10.60;95.00;;;;;;5032248;28;20028;-72
2021/10/28 00:21:41;;;;;;;18.90;13.38;;;10.60;95.00;;;;;;5014740;28;20029;-72
2021/10/28 00:24:10;;;;;;;21.08;14.10;;;10.60;95.10;;;;;;5032290;28;20458;-72
2021/10/28 00:26:39;;;;;;;21.73;14.00;;;10.60;95.20;;;;;;5032605;28;20410;-73
2021/10/28 00:29:09;;;;;;;19.92;12.48;;;10.60;95.20;;;;;;5014672;28;20072;-70
2021/10/28 00:31:38;;;;;;;17.30;13.77;;;10.60;95.20;;;;;;5032004;28;20373;-72
2021/10/28 00:34:05;;;;;;;20.20;13.27;;;10.60;95.20;;;;;;5014537;28;20067;-72
2021/10/28 00:36:31;;;;;;;22.58;14.85;;;10.50;95.30;;;;;;5014306;28;20017;-73
2021/10/28 00:38:57;;;;;;;22.83;13.02;;;10.60;95.40;;;;;;5032032;28;20036;-74
2021/10/28 00:41:24;;;;;;;20.90;13.20;;;10.50;95.30;;;;;;5032232;28;20022;-72
2021/10/28 00:43:54;;;;;;;18.10;13.38;;;10.50;95.40;;;;;;5014607;28;20084;-73
2021/10/28 00:46:21;;;;;;;22.40;14.82;;;10.50;95.30;;;;;;5032118;28;20096;-73
2021/10/28 00:48:48;;;;;;;21.25;14.13;;;10.50;95.30;;;;;;5014718;28;20028;-72
2021/10/28 00:51:17;;;;;;;24.42;13.77;;;10.50;95.20;;;;;;5032252;28;20064;-72
2021/10/28 00:53:43;;;;;;;17.77;12.63;;;10.50;95.60;;;;;;5032543;28;20489;-72
2021/10/28 00:56:09;;;;;;;19.67;14.20;;;10.40;95.20;;;;;;5032149;28;20038;-73
2021/10/28 00:58:35;;;;;;;18.38;12.75;;;10.40;95.20;;;;;;5034105;28;20029;-72
2021/10/28 01:01:03;;;;;;;18.95;12.85;;;10.40;95.20;;;;;;5035958;28;20026;-73
2021/10/28 01:03:29;;;;;;;18.30;10.75;;;10.40;95.10;;;;;;5017998;28;20044;-73
2021/10/28 01:05:55;;;;;;;17.55;12.13;;;10.40;95.10;;;;;;5018312;28;20029;-73
2021/10/28 01:08:21;;;;;;;20.67;13.57;;;10.30;95.10;;;;;;5035763;28;20025;-73
2021/10/28 01:10:49;;;;;;;27.08;14.07;;;10.30;95.00;;;;;;5036234;28;20028;-73
2021/10/28 01:13:17;;;;;;;20.88;13.00;;;10.30;94.90;;;;;;5039881;28;20053;-73
2021/10/28 01:15:43;;;;;;;25.30;12.77;;;10.30;95.10;;;;;;5039399;28;20417;-73
2021/10/28 01:18:14;;;;;;;18.17;11.93;;;10.30;95.10;;;;;;5035823;28;20052;-73
2021/10/28 01:20:42;;;;;;;20.42;13.18;;;10.30;95.20;;;;;;5035662;28;20448;-72
2021/10/28 01:23:11;;;;;;;18.08;12.35;;;10.20;95.60;;;;;;5037294;28;20077;-73
2021/10/28 01:25:38;;;;;;;23.50;13.40;;;10.20;95.30;;;;;;5043238;28;20025;-70
2021/10/28 01:28:04;;;;;;;17.80;12.52;;;10.20;95.10;;;;;;5020716;28;20026;-72
2021/10/28 01:30:30;;;;;;;19.95;12.85;;;10.20;95.00;;;;;;5035611;28;20021;-72
2021/10/28 01:32:55;;;;;;;18.75;13.32;;;10.20;95.10;;;;;;5035485;28;20043;-72
2021/10/28 01:35:21;;;;;;;19.63;12.30;;;10.20;95.30;;;;;;5035136;28;20032;-72
2021/10/28 01:37:47;;;;;;;20.25;12.95;;;10.10;95.20;;;;;;5035326;28;20022;-71
2021/10/28 01:40:14;;;;;;;25.48;13.60;;;10.20;95.40;;;;;;5035384;28;20116;-71
2021/10/28 01:42:47;;;;;;;22.45;13.48;;;10.10;95.40;;;;;;5035053;28;20049;-72
2021/10/28 01:45:13;;;;;;;23.13;14.40;;;10.20;95.40;;;;;;5017331;28;20132;-72
2021/10/28 01:47:40;;;;;;;19.33;12.80;;;10.20;95.50;;;;;;5034836;28;20082;-71
2021/10/28 01:50:10;;;;;;;19.42;12.52;;;10.10;95.40;;;;;;5035105;28;20025;-72
2021/10/28 01:52:39;;;;;;;19.35;13.05;;;10.10;95.30;;;;;;5035012;28;20018;-72
2021/10/28 01:55:10;;;;;;;19.45;12.63;;;10.10;95.30;;;;;;5035166;28;20064;-72
2021/10/28 01:57:37;;;;;;;24.58;13.45;;;10.10;95.30;;;;;;5034852;28;20036;-72
2021/10/28 02:00:15;;;;;;;21.02;13.27;;;10.00;95.20;;;;;;5035024;28;20037;-72
2021/10/28 02:02:42;;;;;;;21.30;13.95;;;10.10;95.40;;;;;;5034466;28;20428;-72
2021/10/28 02:05:09;;;;;;;22.52;13.52;;;10.10;95.40;;;;;;5034426;28;20355;-73
2021/10/28 02:07:36;;;;;;;19.75;12.50;;;10.00;95.30;;;;;;5016717;28;20355;-73
2021/10/28 02:10:03;;;;;;;20.15;13.00;;;10.00;95.40;;;;;;5033764;28;20044;-73
2021/10/28 02:12:28;;;;;;;25.35;13.27;;;10.00;95.30;;;;;;5034273;28;20112;-73
2021/10/28 02:14:54;;;;;;;21.10;14.05;;;10.00;95.30;;;;;;5034743;28;20105;-71
2021/10/28 02:17:19;;;;;;;21.38;13.30;;;10.00;95.30;;;;;;5016691;28;20454;-72
2021/10/28 02:19:45;;;;;;;24.70;14.75;;;9.90;95.30;;;;;;5034549;28;20421;-72
2021/10/28 02:22:12;;;;;;;25.67;16.30;;;9.90;95.30;;;;;;5034554;28;20026;-72
2021/10/28 02:24:37;;;;;;;20.00;13.23;;;9.90;95.30;;;;;;5016419;28;20385;-72
2021/10/28 02:27:03;;;;;;;21.33;13.32;;;9.90;95.40;;;;;;5016590;28;20025;-72
2021/10/28 02:29:29;;;;;;;21.33;13.10;;;9.90;95.40;;;;;;5034093;28;20374;-72
2021/10/28 02:31:54;;;;;;;22.15;13.65;;;9.90;95.40;;;;;;5034764;28;20111;-72
2021/10/28 02:34:20;;;;;;;19.65;12.98;;;9.90;95.40;;;;;;5016273;28;20036;-72
2021/10/28 02:36:46;;;;;;;18.88;12.90;;;9.80;95.20;;;;;;5034217;28;20036;-72
2021/10/28 02:39:11;;;;;;;23.38;13.85;;;9.80;95.20;;;;;;5034401;28;20026;-72
2021/10/28 02:41:37;;;;;;;23.50;13.10;;;9.80;95.20;;;;;;5034006;28;20057;-73
2021/10/28 02:44:04;;;;;;;18.13;12.52;;;9.80;95.20;;;;;;5016191;28;20029;-72
2021/10/28 02:46:30;;;;;;;20.80;14.13;;;9.70;95.20;;;;;;5033850;28;20462;-72
2021/10/28 02:48:55;;;;;;;26.98;14.60;;;9.70;95.20;;;;;;5034115;28;20109;-72
2021/10/28 02:51:21;;;;;;;18.35;13.20;;;9.70;95.30;;;;;;5033787;28;20028;-72
2021/10/28 02:53:47;;;;;;;27.17;14.45;;;9.70;95.20;;;;;;5033972;28;20029;-73
2021/10/28 02:56:13;;;;;;;22.20;15.70;;;9.70;95.30;;;;;;5033884;28;20043;-72
2021/10/28 02:58:38;;;;;;;22.27;14.00;;;9.60;95.30;;;;;;5033253;28;20541;-72
2021/10/28 03:01:04;;;;;;;22.08;14.02;;;9.60;95.30;;;;;;5033780;28;20026;-71
2021/10/28 03:03:30;;;;;;;20.58;13.82;;;9.60;95.30;;;;;;5033374;28;20390;-72
2021/10/28 03:05:56;;;;;;;20.60;13.10;;;9.60;95.30;;;;;;5033413;28;20040;-72
2021/10/28 03:08:22;;;;;;;22.33;14.68;;;9.60;95.30;;;;;;5033976;28;20049;-72
2021/10/28 03:10:48;;;;;;;22.38;14.57;;;9.60;95.40;;;;;;5033699;28;20047;-72
2021/10/28 03:13:17;;;;;;;21.17;14.50;;;9.50;95.30;;;;;;5033874;28;20037;-71
2021/10/28 03:15:43;;;;;;;27.92;16.25;;;9.50;95.20;;;;;;5036304;28;20022;-71
2021/10/28 03:26:07;;;;;;;25.65;16.95;;;9.30;94.90;;;;;;5033299;28;20152;-73
2021/10/28 03:28:33;;;;;;;24.85;17.58;;;9.30;95.00;;;;;;5015341;28;20080;-72
2021/10/28 03:30:58;;;;;;;28.58;15.98;;;9.30;95.20;;;;;;5033280;28;20454;-72
2021/10/28 03:33:24;;;;;;;26.60;17.60;;;9.30;95.20;;;;;;5033570;28;20055;-72
2021/10/28 03:35:51;;;;;;;26.30;17.25;;;9.30;95.20;;;;;;5033618;28;20426;-74
2021/10/28 03:43:54;;;;;;;22.63;16.13;;;9.20;95.40;;;;;;5032860;28;20053;-73
2021/10/28 04:29:04;;;;;;;23.98;16.27;;;9.00;95.80;;;;;;5033128;28;20453;-72
2021/10/28 04:31:36;;;;;;;28.30;15.48;;;9.00;95.60;;;;;;5032301;28;20045;-72
2021/10/28 04:34:06;;;;;;;24.42;16.65;;;9.00;95.60;;;;;;5038616;28;20040;-72
2021/10/28 04:36:32;;;;;;;26.67;17.00;;;9.00;95.60;;;;;;5020987;28;20044;-72
2021/10/28 04:38:58;;;;;;;27.52;16.15;;;8.90;95.60;;;;;;5021237;28;20075;-72
2021/10/28 04:41:25;;;;;;;27.38;17.65;;;8.90;95.50;;;;;;5021161;28;20060;-72
2021/10/28 04:43:51;;;;;;;23.67;14.80;;;8.90;95.60;;;;;;5038088;28;20039;-72
2021/10/28 04:46:20;;;;;;;29.08;17.90;;;8.90;95.60;;;;;;5038801;28;20024;-72
2021/10/28 04:48:46;;;;;;;28.83;18.42;;;8.90;95.70;;;;;;5038631;28;20025;-72
2021/10/28 04:51:12;;;;;;;29.17;17.70;;;9.00;95.70;;;;;;5038680;28;20018;-72
2021/10/28 04:53:38;;;;;;;24.95;15.93;;;8.90;95.80;;;;;;5038512;28;20083;-72
2021/10/28 04:56:04;;;;;;;33.60;19.10;;;8.90;95.80;;;;;;5038835;28;20038;-73
2021/10/28 04:58:29;;;;;;;31.45;18.83;;;9.00;95.80;;;;;;5038272;28;20029;-72
2021/10/28 05:00:56;;;;;;;29.50;18.27;;;9.00;95.80;;;;;;5039003;28;20485;-72
2021/10/28 05:03:21;;;;;;;28.40;17.63;;;9.00;95.90;;;;;;5023500;28;20033;-71
2021/10/28 05:05:47;;;;;;;24.77;17.23;;;8.90;95.80;;;;;;5041783;28;20075;-70
2021/10/28 05:08:13;;;;;;;32.58;17.67;;;8.90;95.80;;;;;;5041943;28;20112;-70
2021/10/28 05:10:42;;;;;;;33.85;18.50;;;8.90;95.80;;;;;;5021806;28;20466;-72
2021/10/28 05:13:12;;;;;;;27.55;16.02;;;8.90;95.80;;;;;;5038420;28;20109;-71
2021/10/28 05:15:46;;;;;;;26.60;16.70;;;8.90;95.80;;;;;;5038446;28;20022;-72
2021/10/28 05:18:13;;;;;;;30.33;16.42;;;8.90;95.80;;;;;;5038554;28;20077;-72
2021/10/28 05:20:39;;;;;;;29.63;18.42;;;8.90;95.80;;;;;;5038402;28;20426;-71
2021/10/28 05:23:04;;;;;;;33.05;18.45;;;8.90;95.80;;;;;;5038447;28;20026;-72
2021/10/28 05:25:31;;;;;;;29.40;18.63;;;8.90;95.80;;;;;;5039788;28;20385;-72
2021/10/28 05:27:56;;;;;;;29.77;17.88;;;8.90;95.90;;;;;;5046397;28;20030;-72
2021/10/28 05:30:22;;;;;;;29.27;17.70;;;8.90;95.80;;;;;;5021046;28;20021;-72
2021/10/28 05:32:47;;;;;;;32.03;18.17;;;8.90;95.80;;;;;;5020425;28;20087;-71
2021/10/28 05:35:13;;;;;;;31.80;17.52;;;8.90;95.80;;;;;;5038382;28;20030;-71
2021/10/28 05:37:39;;;;;;;33.58;18.63;;;8.90;95.90;;;;;;5038184;28;20052;-72
2021/10/28 05:40:05;;;;;;;31.23;18.90;;;9.00;95.90;;;;;;5038826;28;20083;-72
2021/10/28 05:42:31;;;;;;;30.88;18.58;;;8.90;95.80;;;;;;5020311;28;20053;-72
2021/10/28 05:44:57;;;;;;;29.58;18.00;;;9.00;95.80;;;;;;5035840;28;20076;-72
2021/10/28 05:47:23;;;;;;;31.95;17.75;;;8.90;95.70;;;;;;5035540;28;20034;-72
2021/10/28 05:49:49;;;;;;;30.77;18.27;;;8.90;95.70;;;;;;5035186;28;20025;-73
2021/10/28 05:52:16;;;;;;;28.00;17.48;;;8.90;95.60;;;;;;5035231;28;20461;-72
2021/10/28 05:54:42;;;;;;;28.70;17.20;;;8.80;95.50;;;;;;5034601;28;20384;-72
2021/10/28 05:57:07;;;;;;;36.45;19.70;;;8.80;95.50;;;;;;5034982;28;20025;-72
2021/10/28 05:59:33;;;;;;;31.05;16.92;;;8.80;95.50;;;;;;5035839;28;20108;-71
2021/10/28 06:01:58;;;;;;;30.52;17.60;;;8.80;95.50;;;;;;5036278;28;20029;-72
2021/10/28 06:04:24;;;;;;;29.45;17.77;;;8.80;95.50;;;;;;5037256;28;20030;-72
2021/10/28 06:06:49;;;;;;;36.40;19.65;;;8.80;95.50;;;;;;5044485;28;20023;-72
2021/10/28 06:09:15;;;;;;;31.65;17.58;;;8.80;95.50;;;;;;5025335;28;20037;-72
2021/10/28 06:11:41;;;;;;;29.42;18.73;;;8.80;95.50;;;;;;5031277;28;20072;-72
2021/10/28 06:14:06;;;;;;;37.38;19.65;;;8.80;95.70;;;;;;5020511;28;20047;-71
2021/10/28 06:16:34;;;;;;;32.90;19.15;;;8.80;95.70;;;;;;5035155;28;20203;-72
2021/10/28 06:18:59;;;;;;;32.22;18.02;;;8.80;95.60;;;;;;5035045;28;20462;-73
2021/10/28 06:21:26;;;;;;;37.58;18.33;;;8.80;95.60;;;;;;5035248;28;20033;-72
2021/10/28 06:23:53;;;;;;;30.73;17.88;;;8.80;95.60;;;;;;5016315;28;20092;-71
2021/10/28 06:26:18;;;;;;;34.42;18.70;;;8.80;95.60;;;;;;5016822;28;20092;-72
2021/10/28 06:28:45;;;;;;;32.92;19.88;;;8.80;95.60;;;;;;5034184;28;20497;-72
2021/10/28 06:31:13;;;;;;;30.92;18.02;;;8.80;95.50;;;;;;5034327;28;20099;-72
2021/10/28 06:33:47;;;;;;;24.95;15.80;;;8.80;95.50;;;;;;5034041;28;20030;-72
2021/10/28 06:36:14;;;;;;;28.75;17.83;;;8.80;95.40;;;;;;5034409;28;20462;-72
2021/10/28 06:38:40;;;;;;;27.85;18.98;;;8.80;95.50;;;;;;5034067;28;20026;-70
2021/10/28 06:41:05;;;;;;;33.50;18.02;;;8.90;95.50;;;;;;5016521;28;20433;-72
2021/10/28 06:43:31;;;;;;;27.88;16.88;;;8.90;95.40;;;;;;5034197;28;20065;-72
2021/10/28 06:45:58;;;;;;;28.92;17.70;;;8.90;95.40;;;;;;5033631;28;20520;-72
2021/10/28 06:48:24;;;;;;;26.10;16.73;;;9.00;95.70;;;;;;5034293;28;20029;-72
2021/10/28 06:50:53;;;;;;;27.67;15.80;;;9.20;95.60;;;;;;5034295;28;20096;-72
2021/10/28 06:53:32;;;;;;;25.73;14.27;;;9.50;95.60;;;;;;5016503;28;20025;-72
2021/10/28 07:04:00;;;;;;;18.52;12.32;;;11.20;92.20;;;;;;5033968;28;20084;-73
2021/10/28 07:06:27;;;;;;;20.42;12.18;;;11.60;91.20;;;;;;5037092;28;20049;-70
2021/10/28 07:09:05;;;;;;;21.05;12.15;;;12.00;90.50;;;;;;5035993;28;20062;-71
2021/10/28 07:11:34;;;;;;;19.23;10.63;;;12.50;89.00;;;;;;5054056;28;20457;-72
2021/10/28 07:14:05;;;;;;;19.67;11.63;;;13.10;86.50;;;;;;5053527;28;20025;-72
2021/10/28 07:19:14;;;;;;;17.38;10.60;;;14.00;81.60;;;;;;5053488;28;20029;-70
2021/10/28 08:24:00;;;;;;;8.80;5.70;;;18.80;65.70;;;;;;5051924;28;20036;-71
2021/10/28 08:29:32;;;;;;;10.13;5.80;;;18.80;67.50;;;;;;5052106;28;20112;-71
2021/10/28 08:31:59;;;;;;;14.13;8.60;;;19.10;66.50;;;;;;5052566;28;20070;-73
2021/10/28 08:34:30;;;;;;;8.82;5.20;;;19.30;65.80;;;;;;5034855;28;20024;-72
2021/10/28 08:37:06;;;;;;;11.73;6.72;;;19.30;65.40;;;;;;5052801;28;20025;-73
2021/10/28 08:39:36;;;;;;;8.25;5.20;;;19.40;65.60;;;;;;5053010;28;20071;-72
2021/10/28 08:42:07;;;;;;;13.52;8.50;;;19.30;67.70;;;;;;5053003;28;20027;-73
2021/10/28 08:44:38;;;;;;;7.15;4.00;;;19.40;66.80;;;;;;5053647;28;20032;-73
2021/10/28 08:47:04;;;;;;;6.63;3.85;;;19.50;70.70;;;;;;5036107;28;20038;-73
2021/10/28 08:49:41;;;;;;;12.23;7.03;;;19.40;68.60;;;;;;5053930;28;20029;-73
2021/10/28 09:30:42;;;;;;;14.00;9.13;;;19.70;67.90;;;;;;5035258;28;20112;-73
2021/10/28 09:33:19;;;;;;;14.30;8.90;;;19.80;66.20;;;;;;5035022;28;20071;-73
2021/10/28 09:35:56;;;;;;;12.25;7.70;;;20.10;64.10;;;;;;5002177;28;20382;-72
2021/10/28 09:45:29;;;;;;;13.55;9.13;;;20.20;75.20;;;;;;5040697;28;20486;-73
2021/10/28 09:50:48;;;;;;;5.65;2.38;;;20.40;76.10;;;;;;5013034;28;20389;-73
2021/10/28 09:53:27;;;;;;;4.45;2.22;;;20.50;80.60;;;;;;5020158;28;20044;-73
2021/10/28 09:58:37;;;;;;;11.48;7.65;;;20.00;72.80;;;;;;5034494;28;20140;-73
2021/10/28 10:01:06;;;;;;;12.82;7.45;;;19.90;73.90;;;;;;5034072;28;20120;-73
2021/10/28 10:03:37;;;;;;;15.13;7.90;;;20.10;74.20;;;;;;5034375;28;20049;-73
2021/10/28 10:06:03;;;;;;;12.43;8.35;;;20.30;68.50;;;;;;5033688;28;20021;-73
2021/10/28 10:08:31;;;;;;;16.90;9.55;;;20.50;68.20;;;;;;5034230;28;20047;-73
2021/10/28 10:10:57;;;;;;;11.27;7.18;;;20.50;63.90;;;;;;5033858;28;20021;-73
2021/10/28 10:13:25;;;;;;;11.48;7.55;;;20.40;69.00;;;;;;5034190;28;20068;-74
2021/10/28 10:15:59;;;;;;;13.55;8.85;;;20.30;67.00;;;;;;5031113;28;20025;-72
2021/10/28 10:18:25;;;;;;;13.18;8.43;;;20.30;65.30;;;;;;5025743;28;20021;-73
2021/10/28 10:20:57;;;;;;;11.02;6.97;;;20.40;67.70;;;;;;5040755;28;20025;-73
2021/10/28 10:23:45;;;;;;;14.82;8.82;;;20.60;72.10;;;;;;5033600;28;20490;-73
2021/10/28 10:26:28;;;;;;;14.68;9.13;;;20.60;65.50;;;;;;5034014;28;20017;-74
2021/10/28 11:25:49;;;;;;;10.30;6.07;;;22.00;85.20;;;;;;5033286;28;20063;-73
2021/10/28 12:16:39;;;;;;;15.35;10.40;;;22.10;80.50;;;;;;5032243;28;20043;-74
2021/10/28 12:25:12;;;;;;;14.48;10.55;;;22.10;75.00;;;;;;5032383;28;20049;-74
2021/10/28 13:07:56;;;;;;;13.52;9.13;;;23.00;80.80;;;;;;5036789;28;20037;-72
2021/10/28 14:37:23;;;;;;;7.35;4.03;;;24.70;60.00;;;;;;5034584;28;20044;-74
2021/10/28 15:29:19;;;;;;;10.95;5.10;;;18.20;81.30;;;;;;5033841;28;20044;-75
2021/10/28 15:37:14;;;;;;;9.00;4.82;;;17.80;72.60;;;;;;5033675;28;20386;-74
2021/10/28 15:40:09;;;;;;;7.07;4.57;;;17.70;76.00;;;;;;5015938;28;20025;-74
2021/10/28 15:56:39;;;;;;;10.88;6.45;;;17.10;77.80;;;;;;5041012;28;20449;-74
2021/10/28 16:23:18;;;;;;;13.07;6.95;;;16.30;79.30;;;;;;5032104;28;20386;-74
2021/10/28 16:25:46;;;;;;;9.80;5.03;;;16.20;81.70;;;;;;5014374;28;20017;-74
2021/10/28 16:28:15;;;;;;;11.93;7.15;;;16.10;82.10;;;;;;5031318;28;20029;-74
2021/10/28 16:30:41;;;;;;;10.20;6.28;;;16.00;80.90;;;;;;5032673;28;20469;-74
2021/10/28 16:33:07;;;;;;;9.57;6.15;;;16.00;81.30;;;;;;5032394;28;20029;-75
2021/10/28 16:35:33;;;;;;;12.35;6.18;;;15.90;79.50;;;;;;5032671;28;20419;-75
2021/10/28 16:37:58;;;;;;;12.30;7.75;;;15.80;79.50;;;;;;5032650;28;20447;-75
2021/10/28 16:40:24;;;;;;;13.70;6.82;;;15.70;79.90;;;;;;5032148;28;20025;-75
2021/10/28 16:42:50;;;;;;;9.65;4.50;;;15.60;80.00;;;;;;5014565;28;20029;-74
2021/10/28 16:45:16;;;;;;;8.07;4.95;;;15.50;84.20;;;;;;5014169;28;20174;-74
2021/10/28 16:47:41;;;;;;;10.18;5.93;;;15.50;86.40;;;;;;5014476;28;20478;-74
2021/10/28 16:50:08;;;;;;;12.18;6.20;;;15.40;85.80;;;;;;5032050;28;20014;-74
2021/10/28 16:52:34;;;;;;;9.50;5.57;;;15.40;85.60;;;;;;5032357;28;20035;-74
2021/10/28 16:55:00;;;;;;;11.68;6.85;;;15.30;84.60;;;;;;5032455;28;20136;-75
2021/10/28 16:57:25;;;;;;;11.65;7.00;;;15.30;86.00;;;;;;5032223;28;20127;-75
2021/10/28 16:59:51;;;;;;;13.90;7.13;;;15.20;83.90;;;;;;5033312;28;20457;-74
2021/10/28 17:02:17;;;;;;;10.70;7.18;;;15.10;83.70;;;;;;5015759;28;20366;-75
2021/10/28 17:04:43;;;;;;;13.25;7.20;;;15.10;84.40;;;;;;5016728;28;20351;-75
2021/10/28 17:07:09;;;;;;;10.85;5.97;;;15.00;85.30;;;;;;5020801;28;20029;-75
2021/10/28 17:09:34;;;;;;;12.23;6.88;;;15.00;84.30;;;;;;5041183;28;20021;-74
2021/10/28 17:12:01;;;;;;;12.00;7.05;;;15.00;85.00;;;;;;5048363;28;20397;-75
2021/10/28 17:14:26;;;;;;;10.82;7.38;;;14.90;85.10;;;;;;5032094;28;20033;-74
2021/10/28 17:16:52;;;;;;;12.52;6.68;;;14.90;86.00;;;;;;5032149;28;20408;-74
2021/10/28 17:19:19;;;;;;;8.95;4.38;;;14.80;86.60;;;;;;5031812;28;20033;-75
2021/10/28 17:21:46;;;;;;;11.57;7.32;;;14.80;88.10;;;;;;5014523;28;20166;-75
2021/10/28 17:26:57;;;;;;;11.23;6.97;;;14.70;87.50;;;;;;5032078;28;20176;-76
2021/10/28 17:29:23;;;;;;;11.35;7.93;;;14.70;87.00;;;;;;5014081;28;20454;-75
2021/10/28 17:31:51;;;;;;;9.55;6.43;;;14.60;86.70;;;;;;5032025;28;20022;-76
2021/10/28 17:34:17;;;;;;;13.35;8.52;;;14.60;86.70;;;;;;5014081;28;20108;-75
2021/10/28 17:36:48;;;;;;;11.10;7.80;;;14.60;86.30;;;;;;5014379;28;20441;-76
2021/10/28 17:39:14;;;;;;;11.52;7.75;;;14.50;85.80;;;;;;5032269;28;20025;-76
2021/10/28 17:41:39;;;;;;;10.23;5.97;;;14.50;86.80;;;;;;5017647;28;20409;-75
2021/10/28 17:44:06;;;;;;;10.82;6.90;;;14.40;88.40;;;;;;5035354;28;20469;-75
2021/10/28 17:46:32;;;;;;;10.10;6.57;;;14.40;88.10;;;;;;5035238;28;20022;-74
2021/10/28 17:48:57;;;;;;;12.55;8.48;;;14.40;88.80;;;;;;5017819;28;20401;-75
2021/10/28 17:51:23;;;;;;;11.45;8.63;;;14.40;88.60;;;;;;5035362;28;20025;-74
2021/10/28 17:53:49;;;;;;;14.30;9.85;;;14.30;87.80;;;;;;5036028;28;20018;-74
2021/10/28 17:56:17;;;;;;;8.93;5.43;;;14.30;87.50;;;;;;5043156;28;20022;-74
2021/10/28 17:58:43;;;;;;;14.95;9.52;;;14.20;89.00;;;;;;5026540;28;20025;-75
2021/10/28 18:01:10;;;;;;;12.65;7.28;;;14.20;89.10;;;;;;5034843;28;20099;-74
2021/10/28 18:03:36;;;;;;;12.65;8.05;;;14.20;88.70;;;;;;5035937;28;20492;-74
2021/10/28 18:06:02;;;;;;;14.10;8.85;;;14.10;88.90;;;;;;5036153;28;20041;-74
2021/10/28 18:08:27;;;;;;;16.17;10.70;;;14.10;88.90;;;;;;5036042;28;20030;-74
2021/10/28 18:10:53;;;;;;;22.45;12.88;;;14.00;88.90;;;;;;5017190;28;20031;-75
2021/10/28 18:13:19;;;;;;;15.75;8.25;;;14.00;88.40;;;;;;5034431;28;20363;-76
2021/10/28 18:15:46;;;;;;;18.90;13.02;;;13.90;88.50;;;;;;5016946;28;20124;-75
2021/10/28 18:18:12;;;;;;;17.55;13.07;;;13.90;88.70;;;;;;5015714;28;20029;-76
2021/10/28 18:20:39;;;;;;;13.02;8.68;;;13.90;88.70;;;;;;5016550;28;20117;-74
2021/10/28 18:23:05;;;;;;;15.07;9.43;;;13.80;88.60;;;;;;5034549;28;20378;-76
2021/10/28 18:25:32;;;;;;;15.15;9.98;;;13.80;88.70;;;;;;5034086;28;20116;-74
2021/10/28 18:27:58;;;;;;;17.75;12.55;;;13.80;89.00;;;;;;5034371;28;20466;-74
2021/10/28 18:30:26;;;;;;;18.75;11.18;;;13.80;88.90;;;;;;5033763;28;20427;-73
2021/10/28 18:32:52;;;;;;;13.40;8.65;;;13.70;88.90;;;;;;5016508;28;20115;-74
2021/10/28 18:35:18;;;;;;;15.63;10.27;;;13.70;89.00;;;;;;5034331;28;20029;-74
2021/10/28 18:37:49;;;;;;;20.00;13.18;;;13.60;90.10;;;;;;5034522;28;20025;-74
2021/10/28 18:40:15;;;;;;;17.30;12.57;;;13.60;89.80;;;;;;5016448;28;20355;-75
2021/10/28 18:42:48;;;;;;;16.10;10.48;;;13.60;89.90;;;;;;5016336;28;20025;-75
2021/10/28 18:45:14;;;;;;;16.80;11.35;;;13.50;89.90;;;;;;5016697;28;20378;-74
2021/10/28 18:47:43;;;;;;;17.80;11.57;;;13.50;90.30;;;;;;5016256;28;20112;-76
2021/10/28 18:50:09;;;;;;;12.93;10.00;;;13.50;89.80;;;;;;5034796;28;20080;-75
2021/10/28 18:52:35;;;;;;;15.68;9.95;;;13.50;89.70;;;;;;5034874;28;20025;-75
2021/10/28 18:55:02;;;;;;;17.15;11.35;;;13.50;90.60;;;;;;5019055;28;20029;-73
2021/10/28 18:57:31;;;;;;;15.68;11.02;;;13.40;90.20;;;;;;5046851;28;20002;-76
2021/10/28 18:59:57;;;;;;;14.82;9.85;;;13.40;89.90;;;;;;5040930;28;20005;-73
2021/10/28 19:02:26;;;;;;;19.15;13.02;;;13.40;89.80;;;;;;5047047;28;20101;-74
2021/10/28 19:04:52;;;;;;;18.80;12.37;;;13.30;89.60;;;;;;5034595;28;20159;-75
2021/10/28 19:07:19;;;;;;;22.13;11.95;;;13.30;89.80;;;;;;5033471;28;20032;-74
2021/10/28 19:09:45;;;;;;;17.90;13.20;;;13.20;90.10;;;;;;5015882;28;20045;-73
2021/10/28 19:12:10;;;;;;;15.30;9.70;;;13.20;90.10;;;;;;5033903;28;20466;-75
2021/10/28 19:14:42;;;;;;;26.27;16.27;;;13.10;90.10;;;;;;5015605;28;20061;-75
2021/10/28 19:17:09;;;;;;;20.90;12.93;;;13.10;90.10;;;;;;5033653;28;20021;-75
2021/10/28 19:19:34;;;;;;;19.35;12.20;;;13.10;90.20;;;;;;5015886;28;20018;-75
2021/10/28 19:22:00;;;;;;;19.45;12.80;;;13.00;90.20;;;;;;5033774;28;20381;-75
2021/10/28 19:24:26;;;;;;;23.92;14.05;;;13.00;90.20;;;;;;5033600;28;20025;-74
2021/10/28 19:26:51;;;;;;;17.27;11.18;;;13.00;90.30;;;;;;5033923;28;20080;-74
2021/10/28 19:29:18;;;;;;;18.55;12.45;;;12.90;90.60;;;;;;5016566;28;20103;-75
2021/10/28 19:34:40;;;;;;;20.17;12.27;;;12.90;90.90;;;;;;5006891;28;20065;-72
2021/10/28 19:37:12;;;;;;;17.95;12.88;;;12.90;90.50;;;;;;5034130;28;20022;-73
2021/10/28 19:45:01;;;;;;;16.58;10.15;;;12.80;90.80;;;;;;5034390;28;20087;-74
2021/10/28 19:47:34;;;;;;;19.42;13.00;;;12.80;91.20;;;;;;5033796;28;20129;-75
2021/10/28 19:49:59;;;;;;;17.90;11.35;;;12.80;90.80;;;;;;5015619;28;20021;-75
2021/10/28 19:52:25;;;;;;;17.05;11.45;;;12.70;90.80;;;;;;5033255;28;20041;-74
2021/10/28 19:54:51;;;;;;;16.63;10.90;;;12.70;91.00;;;;;;5033223;28;20531;-75
2021/10/28 19:57:20;;;;;;;17.52;11.27;;;12.70;91.40;;;;;;5034153;28;20043;-74
2021/10/28 20:21:13;;;;;;;;;;;12.40;91.00;;;;;;5033007;28;20029;-74
2021/10/28 20:23:40;;;;;;;20.20;12.88;;;12.40;91.00;;;;;;5014042;28;19959;-73
2021/10/28 20:26:06;;;;;;;18.38;12.05;;;12.30;90.90;;;;;;5032506;28;20041;-73
2021/10/28 20:28:39;;;;;;;20.70;12.82;;;12.20;90.80;;;;;;5032380;28;20026;-73
2021/10/28 20:31:09;;;;;;;19.98;14.43;;;12.30;92.20;;;;;;5014602;28;20021;-74
2021/10/28 20:33:44;;;;;;;20.85;13.90;;;12.20;91.50;;;;;;5007687;28;20463;-73
2021/10/28 20:37:05;;;;;;;18.73;12.57;;;12.20;91.10;;;;;;5032123;28;20030;-73
2021/10/28 20:39:04;;;;;;;16.48;10.63;;;12.20;90.90;;;;;;5031992;28;20091;-74
2021/10/28 20:41:31;;;;;;;19.88;13.38;;;12.20;91.50;;;;;;5032603;28;20021;-74
2021/10/28 20:43:58;;;;;;;22.10;15.15;;;12.10;91.30;;;;;;5032336;28;20030;-74
2021/10/28 20:46:25;;;;;;;21.58;13.60;;;12.10;91.50;;;;;;5036182;28;20016;-74
2021/10/28 20:48:53;;;;;;;21.55;13.80;;;12.10;91.30;;;;;;5036597;28;20021;-74
2021/10/28 20:51:19;;;;;;;16.42;11.38;;;12.10;91.30;;;;;;5034634;28;20017;-74
2021/10/28 20:53:45;;;;;;;17.65;13.05;;;12.00;91.10;;;;;;5034633;28;20030;-72
2021/10/28 20:56:11;;;;;;;16.73;12.15;;;12.00;91.10;;;;;;5031935;28;20021;-73
2021/10/28 20:58:37;;;;;;;18.23;12.95;;;12.00;91.20;;;;;;5031201;28;20393;-73
2021/10/28 21:01:04;;;;;;;13.48;8.80;;;11.90;91.30;;;;;;5031679;28;20029;-74
2021/10/28 21:03:30;;;;;;;18.50;12.82;;;11.90;91.60;;;;;;5031486;28;20061;-72
2021/10/28 21:05:55;;;;;;;21.02;14.25;;;11.90;91.40;;;;;;5030429;28;20056;-73
2021/10/28 21:08:23;;;;;;;17.33;11.90;;;11.90;91.20;;;;;;5033503;28;20072;-73
2021/10/28 21:10:48;;;;;;;20.15;13.45;;;11.80;91.20;;;;;;5032415;28;20458;-73
2021/10/28 21:13:14;;;;;;;20.75;14.27;;;11.80;91.10;;;;;;5032603;28;20033;-72
2021/10/28 21:15:40;;;;;;;15.85;10.88;;;11.80;91.10;;;;;;5034567;28;20032;-74
2021/10/28 21:18:06;;;;;;;20.15;14.02;;;11.80;91.20;;;;;;5034582;28;20120;-73
2021/10/28 21:20:32;;;;;;;23.65;14.48;;;11.80;91.50;;;;;;5035456;28;20029;-73
2021/10/28 21:22:57;;;;;;;16.05;11.50;;;11.70;91.60;;;;;;5035944;28;20113;-73
2021/10/28 21:25:23;;;;;;;18.90;13.52;;;11.70;91.50;;;;;;5034206;28;20026;-73
2021/10/28 21:27:50;;;;;;;24.98;15.38;;;11.70;91.50;;;;;;5034294;28;20033;-73
2021/10/28 21:30:23;;;;;;;18.48;12.63;;;11.60;91.50;;;;;;5035922;28;20021;-73
2021/10/28 21:32:49;;;;;;;25.60;16.92;;;11.60;91.80;;;;;;5035803;28;20026;-74
2021/10/28 21:35:15;;;;;;;29.38;19.92;;;11.60;91.90;;;;;;5035799;28;20036;-74
2021/10/28 21:37:42;;;;;;;16.70;10.25;;;11.60;91.80;;;;;;5035291;28;20030;-73
2021/10/28 21:40:09;;;;;;;19.65;11.77;;;11.50;92.00;;;;;;5037507;28;20491;-73
2021/10/28 21:42:36;;;;;;;20.15;14.30;;;11.50;91.90;;;;;;5054726;28;20465;-74
2021/10/28 21:45:04;;;;;;;23.85;15.80;;;11.50;91.60;;;;;;5055697;28;20029;-74
2021/10/28 21:47:29;;;;;;;23.98;16.95;;;11.40;91.60;;;;;;5055966;28;20025;-74
2021/10/28 21:49:55;;;;;;;27.42;18.17;;;11.40;91.50;;;;;;5039411;28;20441;-74
2021/10/28 21:52:26;;;;;;;20.77;12.35;;;11.40;91.50;;;;;;5038601;28;20017;-74
2021/10/28 22:25:08;;;;;;;26.35;17.27;;;11.00;92.30;;;;;;5055567;28;20102;-73